Time;durP1;ratioP1;P1;durP2;ratioP2;P2;SDS_P1;SDS_P2;PMS_P1;PMS_P2;Temp;Humidity;BMP_temperature;BMP_pressure;BME280_temperature;BME280_humidity;BME280_pressure;Samples;Min_cycle;Max_cycle;Signal;HPM_P1;HPM_P2
2021/07/08 00:00:34;;;;;;;;;;;;;;;;;;4982924;28;19969;-85
2021/07/08 00:02:59;;;;;;;;;;;;;;;;;;4970243;28;19925;-84
2021/07/08 00:05:25;;;;;;;;;;;;;;;;;;4983402;28;19919;-85
2021/07/08 00:07:50;;;;;;;;;;;;;;;;;;4985043;28;19960;-85
2021/07/08 00:10:17;;;;;;;;;;;;;;;;;;4983626;28;19915;-84
2021/07/08 00:12:43;;;;;;;;;;;;;;;;;;4976166;28;19918;-85
2021/07/08 00:15:09;;;;;;;;;;;;;;;;;;4967759;29;19922;-84
2021/07/08 00:17:34;;;;;;;;;;;;;;;;;;4969064;28;19929;-85
2021/07/08 00:19:59;;;;;;;;;;;;;;;;;;4977558;28;19950;-85
2021/07/08 00:22:24;;;;;;;;;;;;;;;;;;4970500;29;19930;-85
2021/07/08 00:24:49;;;;;;;;;;;;;;;;;;4975747;28;19915;-84
2021/07/08 00:27:15;;;;;;;;;;;;;;;;;;4981839;28;19966;-84
2021/07/08 00:29:40;;;;;;;;;;;;;;;;;;4950379;29;19915;-85
2021/07/08 00:32:05;;;;;;;;;;;;;;;;;;4965961;29;19918;-84
2021/07/08 00:34:30;;;;;;;;;;;;;;;;;;4966325;29;19922;-85
2021/07/08 00:36:56;;;;;;;;;;;;;;;;;;4972249;28;19919;-84
2021/07/08 00:39:21;;;;;;;;;;;;;;;;;;4965503;28;19974;-84
2021/07/08 00:41:46;;;;;;;;;;;;;;;;;;4965906;29;19914;-84
2021/07/08 00:44:11;;;;;;;;;;;;;;;;;;4968317;29;19922;-85
2021/07/08 00:46:38;;;;;;;;;;;;;;;;;;4955768;29;19946;-84
2021/07/08 00:49:03;;;;;;;;;;;;;;;;;;4971551;28;19986;-85
2021/07/08 00:51:28;;;;;;;;;;;;;;;;;;4958607;29;20374;-84
2021/07/08 00:53:53;;;;;;;;;;;;;;;;;;4968435;29;19919;-84
2021/07/08 00:56:18;;;;;;;;;;;;;;;;;;4970692;29;19922;-84
2021/07/08 00:59:02;;;;;;;;;;;;;;;;;;4953848;29;19919;-84
2021/07/08 01:01:27;;;;;;;;;;;;;;;;;;4968042;29;19982;-84
2021/07/08 01:03:52;;;;;;;;;;;;;;;;;;4966383;29;19914;-84
2021/07/08 01:06:18;;;;;;;;;;;;;;;;;;4970310;29;19929;-84
2021/07/08 01:08:43;;;;;;;;;;;;;;;;;;4971009;28;19919;-84
2021/07/08 01:11:09;;;;;;;;;;;;;;;;;;4987434;28;19953;-84
2021/07/08 01:13:34;;;;;;;;;;;;;;;;;;4955027;28;19958;-84
2021/07/08 01:15:59;;;;;;;;;;;;;;;;;;4953849;29;19985;-84
2021/07/08 01:18:24;;;;;;;;;;;;;;;;;;4956434;29;20033;-84
2021/07/08 01:20:50;;;;;;;;;;;;;;;;;;4974125;29;20062;-84
2021/07/08 01:23:15;;;;;;;;;;;;;;;;;;4955977;29;20013;-84
2021/07/08 01:25:42;;;;;;;;;;;;;;;;;;4975139;29;19922;-84
2021/07/08 01:28:07;;;;;;;;;;;;;;;;;;4959900;29;19923;-84
2021/07/08 01:30:33;;;;;;;;;;;;;;;;;;4979458;28;19932;-84
2021/07/08 01:32:58;;;;;;;;;;;;;;;;;;4974458;29;20012;-84
2021/07/08 01:35:23;;;;;;;;;;;;;;;;;;4989454;28;19969;-84
2021/07/08 01:37:48;;;;;;;;;;;;;;;;;;4983881;28;19923;-84
2021/07/08 01:40:14;;;;;;;;;;;;;;;;;;4979819;28;19972;-84
2021/07/08 01:42:39;;;;;;;;;;;;;;;;;;4972209;29;19927;-85
2021/07/08 01:45:05;;;;;;;;;;;;;;;;;;4968720;29;19965;-84
2021/07/08 01:47:30;;;;;;;;;;;;;;;;;;4972728;28;19925;-84
2021/07/08 01:49:55;;;;;;;;;;;;;;;;;;4966750;28;19930;-84
2021/07/08 01:52:21;;;;;;;;;;;;;;;;;;4951041;29;19918;-84
2021/07/08 01:54:46;;;;;;;;;;;;;;;;;;4967669;29;19919;-85
2021/07/08 01:57:11;;;;;;;;;;;;;;;;;;4970365;29;19918;-84
2021/07/08 01:59:36;;;;;;;;;;;;;;;;;;4970873;28;20362;-85
2021/07/08 02:02:02;;;;;;;;;;;;;;;;;;4969419;29;19926;-85
2021/07/08 02:04:27;;;;;;;;;;;;;;;;;;4970026;29;19914;-84
2021/07/08 02:06:52;;;;;;;;;;;;;;;;;;4969868;29;19946;-85
2021/07/08 02:09:17;;;;;;;;;;;;;;;;;;4970708;28;19925;-84
2021/07/08 02:11:42;;;;;;;;;;;;;;;;;;4969656;29;20399;-84
2021/07/08 02:14:08;;;;;;;;;;;;;;;;;;4968706;29;20349;-84
2021/07/08 02:16:33;;;;;;;;;;;;;;;;;;4969202;29;20511;-85
2021/07/08 02:18:59;;;;;;;;;;;;;;;;;;4969750;28;19922;-84
2021/07/08 02:21:24;;;;;;;;;;;;;;;;;;4981713;28;19968;-84
2021/07/08 02:23:49;;;;;;;;;;;;;;;;;;4969011;29;19922;-84
2021/07/08 02:26:15;;;;;;;;;;;;;;;;;;4962982;28;19923;-84
2021/07/08 02:28:40;;;;;;;;;;;;;;;;;;4980938;28;19919;-84
2021/07/08 02:31:05;;;;;;;;;;;;;;;;;;4964858;29;20002;-84
2021/07/08 02:33:30;;;;;;;;;;;;;;;;;;4975157;28;20013;-83
2021/07/08 02:35:56;;;;;;;;;;;;;;;;;;4980401;28;19970;-84
2021/07/08 02:38:21;;;;;;;;;;;;;;;;;;4981894;28;19925;-84
2021/07/08 02:40:46;;;;;;;;;;;;;;;;;;4980442;28;19918;-84
2021/07/08 02:43:11;;;;;;;;;;;;;;;;;;4967619;28;19918;-84
2021/07/08 02:45:37;;;;;;;;;;;;;;;;;;4964323;29;20413;-83
2021/07/08 02:48:03;;;;;;;;;;;;;;;;;;4980386;28;19918;-84
2021/07/08 02:50:29;;;;;;;;;;;;;;;;;;4977699;28;19925;-84
2021/07/08 02:52:55;;;;;;;;;;;;;;;;;;4980321;28;19965;-84
2021/07/08 02:55:20;;;;;;;;;;;;;;;;;;4980858;28;19921;-84
2021/07/08 02:57:45;;;;;;;;;;;;;;;;;;4966064;28;19919;-84
2021/07/08 03:00:11;;;;;;;;;;;;;;;;;;4964228;28;19926;-83
2021/07/08 03:02:36;;;;;;;;;;;;;;;;;;4963739;28;20301;-84
2021/07/08 03:05:02;;;;;;;;;;;;;;;;;;4965030;28;19922;-84
2021/07/08 03:07:27;;;;;;;;;;;;;;;;;;4943068;29;19959;-84
2021/07/08 03:09:52;;;;;;;;;;;;;;;;;;4944525;29;19919;-84
2021/07/08 03:12:18;;;;;;;;;;;;;;;;;;4947249;29;19919;-83
2021/07/08 03:14:43;;;;;;;;;;;;;;;;;;4960242;29;19925;-84
2021/07/08 03:17:08;;;;;;;;;;;;;;;;;;4958194;29;19982;-84
2021/07/08 03:19:33;;;;;;;;;;;;;;;;;;4949881;29;19923;-84
2021/07/08 03:21:59;;;;;;;;;;;;;;;;;;4976209;28;19922;-84
2021/07/08 03:24:24;;;;;;;;;;;;;;;;;;4960776;29;19923;-83
2021/07/08 03:26:49;;;;;;;;;;;;;;;;;;4947957;29;19945;-84
2021/07/08 03:29:14;;;;;;;;;;;;;;;;;;4964185;28;19978;-84
2021/07/08 03:31:39;;;;;;;;;;;;;;;;;;4973085;28;19950;-84
2021/07/08 03:34:05;;;;;;;;;;;;;;;;;;4960386;29;20014;-84
2021/07/08 03:36:30;;;;;;;;;;;;;;;;;;4962143;29;20362;-83
2021/07/08 03:38:55;;;;;;;;;;;;;;;;;;4966787;28;20301;-84
2021/07/08 03:41:20;;;;;;;;;;;;;;;;;;5044080;22;19925;-78
2021/07/08 03:43:46;;;;;;;;;;;;;;;;;;5033193;28;19929;-78
2021/07/08 03:46:11;;;;;;;;;;;;;;;;;;5032923;28;20295;-78
2021/07/08 03:48:36;;;;;;;;;;;;;;;;;;5050093;28;19964;-78
2021/07/08 03:51:01;;;;;;;;;;;;;;;;;;5050045;28;19992;-78
2021/07/08 03:53:26;;;;;;;;;;;;;;;;;;5059328;28;19920;-78
2021/07/08 03:55:52;;;;;;;;;;;;;;;;;;5035914;28;19921;-78
2021/07/08 03:58:17;;;;;;;;;;;;;;;;;;5034654;28;20398;-78
2021/07/08 04:00:42;;;;;;;;;;;;;;;;;;5032904;28;19924;-78
2021/07/08 04:03:08;;;;;;;;;;;;;;;;;;5033096;28;19919;-78
2021/07/08 04:05:34;;;;;;;;;;;;;;;;;;5032798;28;20004;-77
2021/07/08 04:07:59;;;;;;;;;;;;;;;;;;5033640;28;19955;-78
2021/07/08 04:10:24;;;;;;;;;;;;;;;;;;5032672;28;19917;-78
2021/07/08 04:12:50;;;;;;;;;;;;;;;;;;5049220;28;19917;-78
2021/07/08 04:15:15;;;;;;;;;;;;;;;;;;5032406;28;19928;-78
2021/07/08 04:17:40;;;;;;;;;;;;;;;;;;5048683;28;19917;-78
2021/07/08 04:20:09;;;;;;;;;;;;;;;;;;5049538;28;19928;-78
2021/07/08 04:22:34;;;;;;;;;;;;;;;;;;5032724;28;19917;-78
2021/07/08 04:24:59;;;;;;;;;;;;;;;;;;5033979;28;19913;-78
2021/07/08 04:27:26;;;;;;;;;;;;;;;;;;5049261;28;19921;-78
2021/07/08 04:29:52;;;;;;;;;;;;;;;;;;5033414;28;19917;-78
2021/07/08 04:32:17;;;;;;;;;;;;;;;;;;5049265;28;20257;-78
2021/07/08 04:34:42;;;;;;;;;;;;;;;;;;5048786;28;19924;-78
2021/07/08 04:37:07;;;;;;;;;;;;;;;;;;5048699;28;19921;-77
2021/07/08 04:39:32;;;;;;;;;;;;;;;;;;5052658;28;19971;-77
2021/07/08 04:41:58;;;;;;;;;;;;;;;;;;5048636;28;20388;-77
2021/07/08 04:44:23;;;;;;;;;;;;;;;;;;5048993;28;20720;-78
2021/07/08 04:46:48;;;;;;;;;;;;;;;;;;5033146;28;19945;-78
2021/07/08 04:49:13;;;;;;;;;;;;;;;;;;5048598;28;19917;-78
2021/07/08 04:51:38;;;;;;;;;;;;;;;;;;5031908;28;19913;-78
2021/07/08 04:54:04;;;;;;;;;;;;;;;;;;5033424;28;19920;-78
2021/07/08 04:56:32;;;;;;;;;;;;;;;;;;5048849;28;19917;-79
2021/07/08 04:58:57;;;;;;;;;;;;;;;;;;5048358;28;19913;-78
2021/07/08 05:01:22;;;;;;;;;;;;;;;;;;5033254;28;20007;-78
2021/07/08 05:03:47;;;;;;;;;;;;;;;;;;5048811;28;19917;-78
2021/07/08 05:06:13;;;;;;;;;;;;;;;;;;5048872;28;19921;-78
2021/07/08 05:08:40;;;;;;;;;;;;;;;;;;5048679;28;19957;-78
2021/07/08 05:11:06;;;;;;;;;;;;;;;;;;5048697;28;20405;-78
2021/07/08 05:13:31;;;;;;;;;;;;;;;;;;5033222;28;19917;-78
2021/07/08 05:15:56;;;;;;;;;;;;;;;;;;5048203;28;19917;-78
2021/07/08 05:18:21;;;;;;;;;;;;;;;;;;5048760;28;19921;-78
2021/07/08 05:20:46;;;;;;;;;;;;;;;;;;5031812;28;19917;-78
2021/07/08 05:23:17;;;;;;;;;;;;;;;;;;5049303;28;20016;-78
2021/07/08 05:25:42;;;;;;;;;;;;;;;;;;5047828;28;19928;-78
2021/07/08 05:28:08;;;;;;;;;;;;;;;;;;5048692;28;20007;-78
2021/07/08 05:30:34;;;;;;;;;;;;;;;;;;5048555;28;19932;-78
2021/07/08 05:32:59;;;;;;;;;;;;;;;;;;5033409;28;19913;-78
2021/07/08 05:35:25;;;;;;;;;;;;;;;;;;5043421;28;19921;-78
2021/07/08 05:37:50;;;;;;;;;;;;;;;;;;5029523;28;19921;-78
2021/07/08 05:40:17;;;;;;;;;;;;;;;;;;5007926;28;19944;-78
2021/07/08 05:42:42;;;;;;;;;;;;;;;;;;5033350;28;19920;-78
2021/07/08 05:45:07;;;;;;;;;;;;;;;;;;5048349;28;19917;-78
2021/07/08 05:47:33;;;;;;;;;;;;;;;;;;5031833;28;19920;-78
2021/07/08 05:49:58;;;;;;;;;;;;;;;;;;5048111;28;19917;-78
2021/07/08 05:52:23;;;;;;;;;;;;;;;;;;5048716;28;19913;-78
2021/07/08 05:54:48;;;;;;;;;;;;;;;;;;5048077;28;19917;-78
2021/07/08 05:57:14;;;;;;;;;;;;;;;;;;5047997;28;20009;-78
2021/07/08 05:59:39;;;;;;;;;;;;;;;;;;5047791;28;19917;-78
2021/07/08 06:02:04;;;;;;;;;;;;;;;;;;5030899;28;19967;-78
2021/07/08 06:04:29;;;;;;;;;;;;;;;;;;5035236;28;19913;-78
2021/07/08 06:06:54;;;;;;;;;;;;;;;;;;5050560;28;19921;-78
2021/07/08 06:09:20;;;;;;;;;;;;;;;;;;5035875;28;19923;-78
2021/07/08 06:11:45;;;;;;;;;;;;;;;;;;5035954;28;20371;-78
2021/07/08 06:14:10;;;;;;;;;;;;;;;;;;5051945;28;20443;-78
2021/07/08 06:16:35;;;;;;;;;;;;;;;;;;5052205;28;20395;-78
2021/07/08 06:19:00;;;;;;;;;;;;;;;;;;5035032;28;19963;-78
2021/07/08 06:21:26;;;;;;;;;;;;;;;;;;5034568;28;20012;-78
2021/07/08 06:23:51;;;;;;;;;;;;;;;;;;5036670;28;19959;-78
2021/07/08 06:26:17;;;;;;;;;;;;;;;;;;5035147;28;19921;-78
2021/07/08 06:28:42;;;;;;;;;;;;;;;;;;5034413;28;19979;-78
2021/07/08 06:31:07;;;;;;;;;;;;;;;;;;5036103;28;20288;-78
2021/07/08 06:33:32;;;;;;;;;;;;;;;;;;5051581;28;19913;-78
2021/07/08 06:35:57;;;;;;;;;;;;;;;;;;5036108;28;19913;-78
2021/07/08 06:38:23;;;;;;;;;;;;;;;;;;5034541;28;20405;-78
2021/07/08 06:40:49;;;;;;;;;;;;;;;;;;5050898;28;19921;-78
2021/07/08 06:43:14;;;;;;;;;;;;;;;;;;5050670;28;19917;-78
2021/07/08 06:45:39;;;;;;;;;;;;;;;;;;5034669;28;19967;-78
2021/07/08 06:48:05;;;;;;;;;;;;;;;;;;5034706;28;19948;-78
2021/07/08 06:50:31;;;;;;;;;;;;;;;;;;5051196;28;20291;-77
2021/07/08 06:52:56;;;;;;;;;;;;;;;;;;5050750;28;19957;-78
2021/07/08 06:55:21;;;;;;;;;;;;;;;;;;5035459;28;20012;-78
2021/07/08 06:57:52;;;;;;;;;;;;;;;;;;5034477;28;19913;-78
2021/07/08 07:00:22;;;;;;;;;;;;;;;;;;5034230;28;20004;-78
2021/07/08 07:02:47;;;;;;;;;;;;;;;;;;5050827;28;20020;-78
2021/07/08 07:05:13;;;;;;;;;;;;;;;;;;5051037;28;19944;-78
2021/07/08 07:07:38;;;;;;;;;;;;;;;;;;5050536;28;20003;-78
2021/07/08 07:10:03;;;;;;;;;;;;;;;;;;5035458;28;20364;-78
2021/07/08 07:12:29;;;;;;;;;;;;;;;;;;5035181;28;19917;-78
2021/07/08 07:14:54;;;;;;;;;;;;;;;;;;5050273;28;19914;-78
2021/07/08 07:17:19;;;;;;;;;;;;;;;;;;5033383;28;19917;-78
2021/07/08 07:19:44;;;;;;;;;;;;;;;;;;5050674;28;20268;-78
2021/07/08 07:22:09;;;;;;;;;;;;;;;;;;5050252;28;20008;-78
2021/07/08 07:24:35;;;;;;;;;;;;;;;;;;5035661;28;19943;-78
2021/07/08 07:27:00;;;;;;;;;;;;;;;;;;5033466;28;20379;-78
2021/07/08 07:29:25;;;;;;;;;;;;;;;;;;5050247;28;19928;-78
2021/07/08 07:31:50;;;;;;;;;;;;;;;;;;5050198;28;19920;-78
2021/07/08 07:34:15;;;;;;;;;;;;;;;;;;5033784;28;19920;-78
2021/07/08 07:36:41;;;;;;;;;;;;;;;;;;5050546;28;19962;-78
2021/07/08 07:39:06;;;;;;;;;;;;;;;;;;5050219;28;19914;-78
2021/07/08 07:41:31;;;;;;;;;;;;;;;;;;5050350;28;19916;-78
2021/07/08 07:43:57;;;;;;;;;;;;;;;;;;5050219;28;19921;-78
2021/07/08 07:46:22;;;;;;;;;;;;;;;;;;5050150;28;19929;-78
2021/07/08 07:48:47;;;;;;;;;;;;;;;;;;5034922;28;19963;-78
2021/07/08 07:51:12;;;;;;;;;;;;;;;;;;5050236;28;20000;-78
2021/07/08 07:53:37;;;;;;;;;;;;;;;;;;5050600;28;19913;-78
2021/07/08 07:56:03;;;;;;;;;;;;;;;;;;5050205;28;19928;-78
2021/07/08 07:58:30;;;;;;;;;;;;;;;;;;5049320;28;19917;-78
2021/07/08 08:00:57;;;;;;;;;;;;;;;;;;5050010;28;20068;-78
2021/07/08 08:03:22;;;;;;;;;;;;;;;;;;5049980;28;19998;-78
2021/07/08 08:08:32;;;;;;;;;;;;;;;;;;5046948;28;19962;-78
2021/07/08 08:10:57;;;;;;;;;;;;;;;;;;5049644;28;20008;-78
2021/07/08 08:13:22;;;;;;;;;;;;;;;;;;5049558;28;20364;-78
2021/07/08 08:15:50;;;;;;;;;;;;;;;;;;5052292;28;19925;-78
2021/07/08 08:18:15;;;;;;;;;;;;;;;;;;5034420;28;20342;-78
2021/07/08 08:20:40;;;;;;;;;;;;;;;;;;5049820;28;19913;-78
2021/07/08 08:23:06;;;;;;;;;;;;;;;;;;5049508;28;20396;-78
2021/07/08 08:25:31;;;;;;;;;;;;;;;;;;5032512;28;19982;-78
2021/07/08 08:27:57;;;;;;;;;;;;;;;;;;5049240;28;19967;-78
2021/07/08 08:30:23;;;;;;;;;;;;;;;;;;5049115;28;19917;-78
2021/07/08 08:32:48;;;;;;;;;;;;;;;;;;5049615;28;19913;-78
2021/07/08 08:35:13;;;;;;;;;;;;;;;;;;5049196;28;20369;-78
2021/07/08 08:37:40;;;;;;;;;;;;;;;;;;5033711;28;19960;-78
2021/07/08 08:40:06;;;;;;;;;;;;;;;;;;5048940;28;19921;-78
2021/07/08 08:42:31;;;;;;;;;;;;;;;;;;5049176;28;19924;-78
2021/07/08 08:44:57;;;;;;;;;;;;;;;;;;5049126;28;20135;-78
2021/07/08 08:47:22;;;;;;;;;;;;;;;;;;5048987;28;19917;-78
2021/07/08 08:49:47;;;;;;;;;;;;;;;;;;5049085;28;20300;-78
2021/07/08 08:52:13;;;;;;;;;;;;;;;;;;5032484;28;19920;-78
2021/07/08 08:54:41;;;;;;;;;;;;;;;;;;5045950;28;19936;-78
2021/07/08 08:57:06;;;;;;;;;;;;;;;;;;5028349;28;20365;-78
2021/07/08 08:59:31;;;;;;;;;;;;;;;;;;5029277;28;19920;-78
2021/07/08 09:02:26;;;;;;;;;;;;;;;;;;5031252;28;19917;-78
2021/07/08 09:04:51;;;;;;;;;;;;;;;;;;5023363;28;19917;-78
2021/07/08 09:07:27;;;;;;;;;;;;;;;;;;5048729;28;20389;-78
2021/07/08 09:09:56;;;;;;;;;;;;;;;;;;5032197;28;19917;-78
2021/07/08 09:12:24;;;;;;;;;;;;;;;;;;5048832;28;19917;-78
2021/07/08 09:14:53;;;;;;;;;;;;;;;;;;5048518;28;19913;-78
2021/07/08 09:17:19;;;;;;;;;;;;;;;;;;5031681;28;19913;-78
2021/07/08 09:19:45;;;;;;;;;;;;;;;;;;5033609;28;20295;-78
2021/07/08 09:22:10;;;;;;;;;;;;;;;;;;5033226;28;19919;-77
2021/07/08 09:24:38;;;;;;;;;;;;;;;;;;5048639;28;19921;-78
2021/07/08 09:27:05;;;;;;;;;;;;;;;;;;5048841;28;20383;-78
2021/07/08 09:29:37;;;;;;;;;;;;;;;;;;5049055;28;20338;-78
2021/07/08 09:32:06;;;;;;;;;;;;;;;;;;5048690;28;20059;-78
2021/07/08 09:34:32;;;;;;;;;;;;;;;;;;5032011;28;19917;-78
2021/07/08 09:37:11;;;;;;;;;;;;;;;;;;5050381;28;19924;-77
2021/07/08 09:39:36;;;;;;;;;;;;;;;;;;5052417;28;19931;-78
2021/07/08 09:42:01;;;;;;;;;;;;;;;;;;5100609;22;19952;-83
2021/07/08 09:44:27;;;;;;;;;;;;;;;;;;4999449;28;19922;-82
2021/07/08 09:46:52;;;;;;;;;;;;;;;;;;4998907;28;19922;-82
2021/07/08 09:49:18;;;;;;;;;;;;;;;;;;4998995;28;19985;-82
2021/07/08 09:51:45;;;;;;;;;;;;;;;;;;5015534;28;19922;-83
2021/07/08 09:54:17;;;;;;;;;;;;;;;;;;5014428;28;19960;-83
2021/07/08 09:56:46;;;;;;;;;;;;;;;;;;4998052;28;19921;-83
2021/07/08 09:59:12;;;;;;;;;;;;;;;;;;5015745;28;19914;-82
2021/07/08 10:01:37;;;;;;;;;;;;;;;;;;5000018;28;20313;-84
2021/07/08 10:04:02;;;;;;;;;;;;;;;;;;5000685;28;20026;-84
2021/07/08 10:06:28;;;;;;;;;;;;;;;;;;5016527;28;19918;-84
2021/07/08 10:08:56;;;;;;;;;;;;;;;;;;5000281;28;20467;-84
2021/07/08 10:11:21;;;;;;;;;;;;;;;;;;4999996;28;19913;-84
2021/07/08 10:13:47;;;;;;;;;;;;;;;;;;5016961;28;20340;-84
2021/07/08 10:16:12;;;;;;;;;;;;;;;;;;5000283;28;20016;-84
2021/07/08 10:18:41;;;;;;;;;;;;;;;;;;5016822;28;19918;-84
2021/07/08 10:21:06;;;;;;;;;;;;;;;;;;4999574;28;20411;-83
2021/07/08 10:23:34;;;;;;;;;;;;;;;;;;4999173;28;20086;-85
2021/07/08 10:26:00;;;;;;;;;;;;;;;;;;5018251;28;19969;-84
2021/07/08 10:28:29;;;;;;;;;;;;;;;;;;5018526;28;20328;-84
2021/07/08 10:30:54;;;;;;;;;;;;;;;;;;5001100;28;19914;-85
2021/07/08 10:33:20;;;;;;;;;;;;;;;;;;5002027;28;20435;-85
2021/07/08 10:35:46;;;;;;;;;;;;;;;;;;5001777;28;19914;-85
2021/07/08 10:38:26;;;;;;;;;;;;;;;;;;5017739;28;20048;-85
2021/07/08 10:40:51;;;;;;;;;;;;;;;;;;5015706;28;20001;-83
2021/07/08 10:43:16;;;;;;;;;;;;;;;;;;4999924;28;20015;-83
2021/07/08 10:45:43;;;;;;;;;;;;;;;;;;4999615;28;19918;-83
2021/07/08 10:48:15;;;;;;;;;;;;;;;;;;5015897;28;19921;-83
2021/07/08 10:50:43;;;;;;;;;;;;;;;;;;5000854;28;19913;-83
2021/07/08 10:53:14;;;;;;;;;;;;;;;;;;5000823;28;20385;-83
2021/07/08 10:55:40;;;;;;;;;;;;;;;;;;5002179;28;19937;-82
2021/07/08 10:58:06;;;;;;;;;;;;;;;;;;5015785;28;20001;-83
2021/07/08 11:00:47;;;;;;;;;;;;;;;;;;5015905;28;19949;-83
2021/07/08 11:03:31;;;;;;;;;;;;;;;;;;4999303;28;19920;-83
2021/07/08 11:05:56;;;;;;;;;;;;;;;;;;5001593;28;20369;-82
2021/07/08 11:09:02;;;;;;;;;;;;;;;;;;4998642;28;19960;-83
2021/07/08 11:11:27;;;;;;;;;;;;;;;;;;4961133;28;19922;-83
2021/07/08 11:13:53;;;;;;;;;;;;;;;;;;4961766;28;19918;-83
2021/07/08 11:16:37;;;;;;;;;;;;;;;;;;4971640;28;19968;-83
2021/07/08 11:19:03;;;;;;;;;;;;;;;;;;5015503;28;19918;-83
2021/07/08 11:21:47;;;;;;;;;;;;;;;;;;4999111;28;19925;-82
2021/07/08 11:24:15;;;;;;;;;;;;;;;;;;5015276;28;19917;-83
2021/07/08 11:26:54;;;;;;;;;;;;;;;;;;4983043;28;20032;-82
2021/07/08 11:29:38;;;;;;;;;;;;;;;;;;4998916;28;19992;-82
2021/07/08 11:32:20;;;;;;;;;;;;;;;;;;5015086;28;19914;-82
2021/07/08 11:34:52;;;;;;;;;;;;;;;;;;4998509;28;19914;-83
2021/07/08 11:37:21;;;;;;;;;;;;;;;;;;4998898;28;20037;-82
2021/07/08 11:39:46;;;;;;;;;;;;;;;;;;4997758;28;19980;-82
2021/07/08 11:42:11;;;;;;;;;;;;;;;;;;5014928;28;19918;-83
2021/07/08 11:44:36;;;;;;;;;;;;;;;;;;4997569;28;19914;-82
2021/07/08 11:47:02;;;;;;;;;;;;;;;;;;4997510;28;19945;-84
2021/07/08 11:49:27;;;;;;;;;;;;;;;;;;5013433;28;19922;-82
2021/07/08 11:51:52;;;;;;;;;;;;;;;;;;4997635;28;19949;-82
2021/07/08 11:54:17;;;;;;;;;;;;;;;;;;4996685;28;19922;-83
2021/07/08 11:56:42;;;;;;;;;;;;;;;;;;4997945;28;19945;-83
2021/07/08 11:59:09;;;;;;;;;;;;;;;;;;4997119;28;19917;-83
2021/07/08 12:01:37;;;;;;;;;;;;;;;;;;5014262;28;19924;-83
2021/07/08 12:04:03;;;;;;;;;;;;;;;;;;4998288;28;19921;-83
2021/07/08 12:06:30;;;;;;;;;;;;;;;;;;5014611;28;19918;-83
2021/07/08 12:09:00;;;;;;;;;;;;;;;;;;4991520;28;19918;-84
2021/07/08 12:11:35;;;;;;;;;;;;;;;;;;4984880;28;19918;-83
2021/07/08 12:14:06;;;;;;;;;;;;;;;;;;4996013;28;19924;-83
2021/07/08 12:16:38;;;;;;;;;;;;;;;;;;4997307;28;20033;-83
2021/07/08 12:19:04;;;;;;;;;;;;;;;;;;5013351;28;19953;-82
2021/07/08 12:21:33;;;;;;;;;;;;;;;;;;4996639;28;19914;-82
2021/07/08 12:23:59;;;;;;;;;;;;;;;;;;5012372;28;19918;-82
2021/07/08 12:26:27;;;;;;;;;;;;;;;;;;4995847;28;19985;-82
2021/07/08 12:29:11;;;;;;;;;;;;;;;;;;5012254;28;19918;-82
2021/07/08 12:31:56;;;;;;;;;;;;;;;;;;4977945;28;19917;-83
2021/07/08 12:34:22;;;;;;;;;;;;;;;;;;4992853;28;19922;-83
2021/07/08 12:36:47;;;;;;;;;;;;;;;;;;4979158;28;20001;-83
2021/07/08 12:39:25;;;;;;;;;;;;;;;;;;5010697;28;19949;-82
2021/07/08 12:41:50;;;;;;;;;;;;;;;;;;5013343;28;20343;-79
2021/07/08 12:44:16;;;;;;;;;;;;;;;;;;4996583;28;19914;-82
2021/07/08 12:46:41;;;;;;;;;;;;;;;;;;4996049;28;20452;-82
2021/07/08 12:49:06;;;;;;;;;;;;;;;;;;4996816;28;20301;-82
2021/07/08 12:51:35;;;;;;;;;;;;;;;;;;5012263;28;19918;-83
2021/07/08 12:54:00;;;;;;;;;;;;;;;;;;4996146;28;20447;-82
2021/07/08 12:56:25;;;;;;;;;;;;;;;;;;4996933;28;19921;-82
2021/07/08 12:59:00;;;;;;;;;;;;;;;;;;5011817;28;19957;-82
2021/07/08 13:01:27;;;;;;;;;;;;;;;;;;5018203;28;19952;-82
2021/07/08 13:03:52;;;;;;;;;;;;;;;;;;4995828;28;19920;-82
2021/07/08 13:06:19;;;;;;;;;;;;;;;;;;4995233;28;19921;-82
2021/07/08 13:08:44;;;;;;;;;;;;;;;;;;4997256;28;19914;-83
2021/07/08 13:11:10;;;;;;;;;;;;;;;;;;4996150;28;20323;-84
2021/07/08 13:13:37;;;;;;;;;;;;;;;;;;5009955;28;20011;-81
2021/07/08 13:16:02;;;;;;;;;;;;;;;;;;4993264;28;19914;-85
2021/07/08 13:18:31;;;;;;;;;;;;;;;;;;4995727;28;19918;-83
2021/07/08 13:20:57;;;;;;;;;;;;;;;;;;4975681;28;19921;-84
2021/07/08 13:23:23;;;;;;;;;;;;;;;;;;4976568;28;19916;-83
2021/07/08 13:25:49;;;;;;;;;;;;;;;;;;4977156;28;19926;-83
2021/07/08 13:28:32;;;;;;;;;;;;;;;;;;5008960;28;19944;-83
2021/07/08 13:30:58;;;;;;;;;;;;;;;;;;4973843;28;20118;-84
2021/07/08 13:33:31;;;;;;;;;;;;;;;;;;4993790;28;20012;-84
2021/07/08 13:36:02;;;;;;;;;;;;;;;;;;4994423;28;19926;-83
2021/07/08 13:38:37;;;;;;;;;;;;;;;;;;4995061;28;19972;-83
2021/07/08 13:41:10;;;;;;;;;;;;;;;;;;4993240;28;19918;-85
2021/07/08 13:43:35;;;;;;;;;;;;;;;;;;4993342;28;19922;-84
2021/07/08 13:46:27;;;;;;;;;;;;;;;;;;5009522;28;19921;-84
2021/07/08 13:49:09;;;;;;;;;;;;;;;;;;4977559;28;20004;-83
2021/07/08 13:51:35;;;;;;;;;;;;;;;;;;4995157;28;19964;-83
2021/07/08 13:54:00;;;;;;;;;;;;;;;;;;4995587;28;19918;-82
2021/07/08 13:56:25;;;;;;;;;;;;;;;;;;5012338;28;19913;-83
2021/07/08 13:58:51;;;;;;;;;;;;;;;;;;5011322;28;19917;-84
2021/07/08 14:01:16;;;;;;;;;;;;;;;;;;5010700;28;19914;-82
2021/07/08 14:03:42;;;;;;;;;;;;;;;;;;4994262;28;19920;-82
2021/07/08 14:06:07;;;;;;;;;;;;;;;;;;4995857;28;19973;-84
2021/07/08 14:08:35;;;;;;;;;;;;;;;;;;5000166;28;19973;-85
2021/07/08 14:11:00;;;;;;;;;;;;;;;;;;4997023;28;19952;-84
2021/07/08 14:13:26;;;;;;;;;;;;;;;;;;4999052;28;19921;-85
2021/07/08 14:15:51;;;;;;;;;;;;;;;;;;5016085;28;20365;-85
2021/07/08 14:18:16;;;;;;;;;;;;;;;;;;4998396;28;19917;-84
2021/07/08 14:20:41;;;;;;;;;;;;;;;;;;4999974;28;19920;-84
2021/07/08 14:23:07;;;;;;;;;;;;;;;;;;5001183;28;19961;-85
2021/07/08 14:25:32;;;;;;;;;;;;;;;;;;5002245;28;19922;-84
2021/07/08 14:27:57;;;;;;;;;;;;;;;;;;5019243;28;19922;-84
2021/07/08 14:30:25;;;;;;;;;;;;;;;;;;5003429;28;20292;-85
2021/07/08 14:32:51;;;;;;;;;;;;;;;;;;5018940;28;19914;-85
2021/07/08 14:35:16;;;;;;;;;;;;;;;;;;4999578;28;20436;-83
2021/07/08 14:37:41;;;;;;;;;;;;;;;;;;4999758;28;20012;-83
2021/07/08 14:40:06;;;;;;;;;;;;;;;;;;4997203;28;19914;-85
2021/07/08 14:42:32;;;;;;;;;;;;;;;;;;5012887;28;19941;-83
2021/07/08 14:45:01;;;;;;;;;;;;;;;;;;4999365;28;20423;-83
2021/07/08 14:47:27;;;;;;;;;;;;;;;;;;5000099;28;19964;-86
2021/07/08 14:49:52;;;;;;;;;;;;;;;;;;4999437;28;19914;-83
2021/07/08 14:52:17;;;;;;;;;;;;;;;;;;5015757;28;19922;-78
2021/07/08 14:54:42;;;;;;;;;;;;;;;;;;4997504;28;19914;-80
2021/07/08 14:57:08;;;;;;;;;;;;;;;;;;5012909;28;19928;-83
2021/07/08 14:59:33;;;;;;;;;;;;;;;;;;4996811;28;19918;-83
2021/07/08 15:01:58;;;;;;;;;;;;;;;;;;4995420;28;19922;-82
2021/07/08 15:04:23;;;;;;;;;;;;;;;;;;4996391;28;20003;-83
2021/07/08 15:06:49;;;;;;;;;;;;;;;;;;4994870;28;19918;-82
2021/07/08 15:09:15;;;;;;;;;;;;;;;;;;4995141;28;20357;-83
2021/07/08 15:11:40;;;;;;;;;;;;;;;;;;5012571;28;19914;-85
2021/07/08 15:14:05;;;;;;;;;;;;;;;;;;4995484;28;19914;-82
2021/07/08 15:16:32;;;;;;;;;;;;;;;;;;4994746;28;19937;-88
2021/07/08 15:18:58;;;;;;;;;;;;;;;;;;4994902;28;19918;-83
2021/07/08 15:21:23;;;;;;;;;;;;;;;;;;4994918;28;20358;-81
2021/07/08 15:23:50;;;;;;;;;;;;;;;;;;4996267;28;19918;-80
2021/07/08 15:26:15;;;;;;;;;;;;;;;;;;4996078;28;20639;-81
2021/07/08 15:28:41;;;;;;;;;;;;;;;;;;4995237;28;19937;-81
2021/07/08 15:31:07;;;;;;;;;;;;;;;;;;4996610;28;19914;-81
2021/07/08 15:33:32;;;;;;;;;;;;;;;;;;4995058;28;19960;-80
2021/07/08 15:35:57;;;;;;;;;;;;;;;;;;4994417;28;19928;-79
2021/07/08 15:38:22;;;;;;;;;;;;;;;;;;5011478;28;20292;-80
2021/07/08 15:40:48;;;;;;;;;;;;;;;;;;4995553;28;19922;-81
2021/07/08 15:43:13;;;;;;;;;;;;;;;;;;4995350;28;19921;-82
2021/07/08 15:45:38;;;;;;;;;;;;;;;;;;4995249;28;20069;-80
2021/07/08 15:48:04;;;;;;;;;;;;;;;;;;4995439;28;19921;-82
2021/07/08 15:50:29;;;;;;;;;;;;;;;;;;4995377;28;19928;-83
2021/07/08 15:52:56;;;;;;;;;;;;;;;;;;4995878;28;20390;-84
2021/07/08 15:55:21;;;;;;;;;;;;;;;;;;4978986;28;20389;-83
2021/07/08 15:57:46;;;;;;;;;;;;;;;;;;5011900;28;19922;-83
2021/07/08 16:00:12;;;;;;;;;;;;;;;;;;4996754;28;19921;-86
2021/07/08 16:02:37;;;;;;;;;;;;;;;;;;5011214;28;19922;-84
2021/07/08 16:05:03;;;;;;;;;;;;;;;;;;4996400;28;19925;-84
2021/07/08 16:07:28;;;;;;;;;;;;;;;;;;4995301;28;19930;-85
2021/07/08 16:09:54;;;;;;;;;;;;;;;;;;4994822;28;19913;-83
2021/07/08 16:12:19;;;;;;;;;;;;;;;;;;4994227;28;20369;-83
2021/07/08 16:20:03;;;;;;;18.40;3.10;;;;;;;;;;5093601;28;20389;-87
2021/07/08 16:22:28;;;;;;;104.60;7.28;;;;;;;;;;5058559;28;20500;-80
2021/07/08 16:24:53;;;;;;;20.87;3.90;;;;;;;;;;5058401;28;20107;-81
2021/07/08 16:27:19;;;;;;;34.87;4.03;;;;;;;;;;5092051;28;20560;-80
2021/07/08 16:29:44;;;;;;;48.53;4.80;;;;;;;;;;5074289;28;20075;-79
2021/07/08 16:32:10;;;;;;;42.40;4.20;;;;;;;;;;5093060;28;20028;-81
2021/07/08 16:34:36;;;;;;;25.77;3.75;;;;;;;;;;5057393;28;20030;-79
2021/07/08 16:37:01;;;;;;;18.63;2.80;;;;;;;;;;5090401;28;20119;-80
2021/07/08 16:39:26;;;;;;;13.13;2.87;;;;;;;;;;5073123;28;20165;-78
2021/07/08 16:41:52;;;;;;;9.97;2.47;;;;;;;;;;5074518;28;20071;-78
2021/07/08 16:44:17;;;;;;;11.97;2.47;;;;;;;;;;5074740;28;20017;-78